createdAt,value
2023-03-06T00:02:05.259Z,2.84
2023-03-06T00:04:33.011Z,2.84
2023-03-06T00:07:02.111Z,2.83
2023-03-06T00:09:29.856Z,2.76
2023-03-06T00:11:57.591Z,2.72
2023-03-06T00:14:25.332Z,2.71
2023-03-06T00:16:55.310Z,2.69
2023-03-06T00:19:23.535Z,2.65
2023-03-06T00:21:51.435Z,2.62
2023-03-06T00:24:20.674Z,2.59
2023-03-06T00:26:48.492Z,2.58
2023-03-06T00:29:16.275Z,2.56
2023-03-06T00:31:46.326Z,2.54
2023-03-06T00:34:14.281Z,2.52
2023-03-06T00:36:42.669Z,2.49
2023-03-06T00:39:10.443Z,2.49
2023-03-06T00:41:39.757Z,2.47
2023-03-06T00:44:07.503Z,2.44
2023-03-06T00:46:35.362Z,2.43
2023-03-06T00:49:03.139Z,2.40
2023-03-06T00:51:30.967Z,2.37
2023-03-06T00:53:58.755Z,2.37
2023-03-06T00:56:27.035Z,2.36
2023-03-06T00:58:56.122Z,2.36
2023-03-06T01:01:23.989Z,2.34
2023-03-06T01:03:51.699Z,2.34
2023-03-06T01:06:19.443Z,2.36
2023-03-06T01:08:47.179Z,2.36
2023-03-06T01:11:14.946Z,2.37
2023-03-06T01:13:42.677Z,2.37
2023-03-06T01:16:14.433Z,2.35
2023-03-06T01:18:43.004Z,2.37
2023-03-06T01:21:10.890Z,2.35
2023-03-06T01:23:39.184Z,2.36
2023-03-06T01:26:07.526Z,2.35
2023-03-06T01:28:37.097Z,2.34
2023-03-06T01:31:05.558Z,2.34
2023-03-06T01:33:35.023Z,2.33
2023-03-06T01:36:05.561Z,2.29
2023-03-06T01:38:33.623Z,2.25
2023-03-06T01:41:01.357Z,2.22
2023-03-06T01:43:31.834Z,2.16
2023-03-06T01:46:23.632Z,2.12
2023-03-06T01:48:55.895Z,2.08
2023-03-06T01:51:27.960Z,2.06
2023-03-06T01:53:56.787Z,2.04
2023-03-06T01:56:25.977Z,2.03
2023-03-06T01:58:54.136Z,2.01
2023-03-06T02:01:22.609Z,1.98
2023-03-06T02:03:52.952Z,1.98
2023-03-06T02:06:21.981Z,1.98
2023-03-06T02:08:51.350Z,1.95
2023-03-06T02:11:21.305Z,1.96
2023-03-06T02:13:52.246Z,1.90
2023-03-06T02:16:23.145Z,1.90
2023-03-06T02:18:52.755Z,1.89
2023-03-06T02:21:24.271Z,1.87
2023-03-06T02:24:00.718Z,1.84
2023-03-06T02:26:31.066Z,1.85
2023-03-06T02:28:59.359Z,1.84
2023-03-06T02:31:28.761Z,1.85
2023-03-06T02:34:10.053Z,1.83
2023-03-06T02:36:42.721Z,1.83
2023-03-06T02:39:11.199Z,1.80
2023-03-06T02:41:40.384Z,1.81
2023-03-06T02:44:08.430Z,1.81
2023-03-06T02:46:36.566Z,1.84
2023-03-06T02:49:04.387Z,1.86
2023-03-06T02:51:32.132Z,1.88
2023-03-06T02:53:59.880Z,1.90
2023-03-06T02:56:28.357Z,1.91
2023-03-06T02:58:57.447Z,1.92
2023-03-06T03:01:25.256Z,1.92
2023-03-06T03:03:53.073Z,1.95
2023-03-06T03:06:20.766Z,1.95
2023-03-06T03:08:48.558Z,1.97
2023-03-06T03:11:16.348Z,1.97
2023-03-06T03:13:44.112Z,1.97
2023-03-06T03:16:15.811Z,2.00
2023-03-06T03:18:47.772Z,2.05
2023-03-06T03:21:16.057Z,2.05
2023-03-06T03:23:43.845Z,2.06
2023-03-06T03:26:14.771Z,2.07
2023-03-06T03:28:42.675Z,2.07
2023-03-06T03:31:12.300Z,2.09
2023-03-06T03:33:42.341Z,2.08
2023-03-06T03:36:10.707Z,2.07
2023-03-06T03:38:38.477Z,2.08
2023-03-06T03:41:06.664Z,2.07
2023-03-06T03:43:34.538Z,2.07
2023-03-06T03:46:02.374Z,2.08
2023-03-06T03:48:30.304Z,2.06
2023-03-06T03:51:05.836Z,2.07
2023-03-06T03:53:33.593Z,2.03
2023-03-06T03:56:01.391Z,2.04
2023-03-06T03:58:29.103Z,2.05
2023-03-06T04:00:56.893Z,2.06
2023-03-06T04:03:24.663Z,2.07
2023-03-06T04:05:54.004Z,2.04
2023-03-06T04:08:24.195Z,2.07
2023-03-06T04:10:52.408Z,2.05
2023-03-06T04:13:21.041Z,2.06
2023-03-06T04:15:49.270Z,2.08
2023-03-06T04:18:17.445Z,2.09
2023-03-06T04:20:46.086Z,2.08
2023-03-06T04:23:14.276Z,2.11
2023-03-06T04:25:43.469Z,2.13
2023-03-06T04:28:11.912Z,2.14
2023-03-06T04:30:39.889Z,2.15
2023-03-06T04:33:07.761Z,2.16
2023-03-06T04:35:35.786Z,2.15
2023-03-06T04:38:03.908Z,2.16
2023-03-06T04:40:33.952Z,2.17
2023-03-06T04:43:04.774Z,2.17
2023-03-06T04:45:33.696Z,2.18
2023-03-06T04:48:01.869Z,2.17
2023-03-06T04:50:32.677Z,2.17
2023-03-06T04:53:01.472Z,2.18
2023-03-06T04:55:30.047Z,2.20
2023-03-06T04:57:58.948Z,2.19
2023-03-06T05:00:31.406Z,2.21
2023-03-06T05:03:00.735Z,2.24
2023-03-06T05:05:29.008Z,2.25
2023-03-06T05:07:57.477Z,2.26
2023-03-06T05:10:25.347Z,2.28
2023-03-06T05:12:53.318Z,2.29
2023-03-06T05:15:21.367Z,2.29
2023-03-06T05:17:50.524Z,2.34
2023-03-06T05:20:18.995Z,2.35
2023-03-06T05:22:46.766Z,2.32
2023-03-06T05:25:14.752Z,2.22
2023-03-06T05:27:42.564Z,2.24
2023-03-06T05:30:14.245Z,2.28
2023-03-06T05:32:42.851Z,2.29
2023-03-06T05:35:18.064Z,2.31
2023-03-06T05:37:45.939Z,2.33
2023-03-06T05:40:14.574Z,2.32
2023-03-06T05:42:42.656Z,2.30
2023-03-06T05:45:11.874Z,2.32
2023-03-06T05:47:39.592Z,2.33
2023-03-06T05:50:10.450Z,2.34
2023-03-06T05:52:40.596Z,2.34
2023-03-06T05:55:11.504Z,2.36
2023-03-06T05:57:39.324Z,2.36
2023-03-06T06:00:08.639Z,2.37
2023-03-06T06:02:36.496Z,2.35
2023-03-06T06:05:04.436Z,2.28
2023-03-06T06:07:32.157Z,2.29
2023-03-06T06:10:03.633Z,2.31
2023-03-06T06:12:32.383Z,2.27
2023-03-06T06:15:00.197Z,2.12
2023-03-06T06:17:28.067Z,2.19
2023-03-06T06:19:58.403Z,2.28
2023-03-06T06:22:26.190Z,2.33
2023-03-06T06:24:53.953Z,2.38
2023-03-06T06:27:23.142Z,2.43
2023-03-06T06:29:52.418Z,2.48
2023-03-06T06:32:20.258Z,2.52
2023-03-06T06:34:48.037Z,2.58
2023-03-06T06:37:15.846Z,2.60
2023-03-06T06:39:43.838Z,2.64
2023-03-06T06:42:30.221Z,2.66
2023-03-06T06:45:00.473Z,2.70
2023-03-06T06:47:30.909Z,2.73
2023-03-06T06:49:58.718Z,2.75
2023-03-06T06:52:26.774Z,2.78
2023-03-06T06:54:54.696Z,2.79
2023-03-06T06:57:25.381Z,2.81
2023-03-06T06:59:54.262Z,2.82
2023-03-06T07:02:23.839Z,2.84
2023-03-06T07:05:05.897Z,2.79
2023-03-06T07:07:36.256Z,2.80
2023-03-06T07:10:05.785Z,2.83
2023-03-06T07:12:35.067Z,2.83
2023-03-06T07:15:03.075Z,2.86
2023-03-06T07:17:32.309Z,2.88
2023-03-06T07:20:00.629Z,2.91
2023-03-06T07:22:31.996Z,2.94
2023-03-06T07:25:04.219Z,2.98
2023-03-06T07:27:32.066Z,2.99
2023-03-06T07:29:59.821Z,3.00
2023-03-06T07:32:27.769Z,3.02
2023-03-06T07:35:13.050Z,3.01
2023-03-06T07:37:44.687Z,3.03
2023-03-06T07:40:13.392Z,3.02
2023-03-06T07:42:41.124Z,3.02
2023-03-06T07:45:09.732Z,3.03
2023-03-06T07:47:37.537Z,3.04
2023-03-06T07:50:08.033Z,3.07
2023-03-06T07:52:35.914Z,3.13
2023-03-06T07:55:04.020Z,3.18
2023-03-06T07:57:31.989Z,3.25
2023-03-06T08:00:01.007Z,3.31
2023-03-06T08:02:28.798Z,3.36
2023-03-06T08:04:56.866Z,3.40
2023-03-06T08:07:26.007Z,3.42
2023-03-06T08:09:53.772Z,3.46
2023-03-06T08:12:21.553Z,3.50
2023-03-06T08:14:49.280Z,3.59
2023-03-06T08:17:17.039Z,3.64
2023-03-06T08:19:44.784Z,3.62
2023-03-06T08:22:14.006Z,3.64
2023-03-06T08:24:43.257Z,3.68
2023-03-06T08:27:11.094Z,3.73
2023-03-06T08:29:38.873Z,3.77
2023-03-06T08:32:07.327Z,3.80
2023-03-06T08:34:35.170Z,3.85
2023-03-06T08:37:03.047Z,3.91
2023-03-06T08:39:30.849Z,3.96
2023-03-06T08:41:59.995Z,3.99
2023-03-06T08:44:28.081Z,4.04
2023-03-06T08:46:55.858Z,4.07
2023-03-06T08:49:23.665Z,4.05
2023-03-06T08:51:52.641Z,4.04
2023-03-06T08:54:20.483Z,4.00
2023-03-06T08:56:48.765Z,4.03
2023-03-06T08:59:20.367Z,3.97
2023-03-06T09:01:48.185Z,4.05
2023-03-06T09:04:16.219Z,4.15
2023-03-06T09:06:45.247Z,4.17
2023-03-06T09:09:13.795Z,4.21
2023-03-06T09:11:43.989Z,4.27
2023-03-06T09:14:12.358Z,4.33
2023-03-06T09:16:41.841Z,4.40
2023-03-06T09:19:09.779Z,4.49
2023-03-06T09:21:38.860Z,4.48
2023-03-06T09:24:07.020Z,4.54
2023-03-06T09:26:51.618Z,4.51
2023-03-06T09:29:19.612Z,4.53
2023-03-06T09:31:49.314Z,4.57
2023-03-06T09:34:17.321Z,4.67
2023-03-06T09:36:56.151Z,4.78
2023-03-06T09:39:25.771Z,4.91
2023-03-06T09:41:54.300Z,4.99
2023-03-06T09:44:26.026Z,5.04
2023-03-06T09:47:21.302Z,5.17
2023-03-06T09:50:01.714Z,5.27
2023-03-06T09:52:37.502Z,5.36
2023-03-06T09:55:14.316Z,5.40
2023-03-06T09:57:53.464Z,5.37
2023-03-06T10:00:27.648Z,5.37
2023-03-06T10:03:07.506Z,5.43
2023-03-06T10:05:40.773Z,5.47
2023-03-06T10:08:21.943Z,5.55
2023-03-06T10:10:55.050Z,5.59
2023-03-06T10:13:27.868Z,5.65
2023-03-06T10:16:04.842Z,5.70
2023-03-06T10:18:38.379Z,5.78
2023-03-06T10:21:21.286Z,5.84
2023-03-06T10:23:55.353Z,5.86
2023-03-06T10:26:26.617Z,5.89
2023-03-06T10:29:07.329Z,5.91
2023-03-06T10:31:36.288Z,5.94
2023-03-06T10:34:16.951Z,5.97
2023-03-06T10:36:44.882Z,6.01
2023-03-06T10:39:17.657Z,6.05
2023-03-06T10:41:46.333Z,6.05
2023-03-06T10:44:25.291Z,6.04
2023-03-06T10:46:55.015Z,6.03
2023-03-06T10:49:31.514Z,6.05
2023-03-06T10:52:02.664Z,6.10
2023-03-06T10:54:31.983Z,6.17
2023-03-06T10:56:59.869Z,6.24
2023-03-06T10:59:29.439Z,6.32
2023-03-06T11:02:00.487Z,6.40
2023-03-06T11:04:32.477Z,6.49
2023-03-06T11:07:09.361Z,6.57
2023-03-06T11:09:37.410Z,6.67
2023-03-06T11:12:27.568Z,6.76
2023-03-06T11:15:11.793Z,6.84
2023-03-06T11:17:50.279Z,6.95
2023-03-06T11:20:22.147Z,7.02
2023-03-06T11:22:53.011Z,7.09
2023-03-06T11:25:23.529Z,7.17
2023-03-06T11:27:58.088Z,7.19
2023-03-06T11:30:31.377Z,7.30
2023-03-06T11:33:02.198Z,7.37
2023-03-06T11:35:40.739Z,7.42
2023-03-06T11:38:15.459Z,7.45
2023-03-06T11:40:49.645Z,7.49
2023-03-06T11:43:24.085Z,7.52
2023-03-06T11:45:59.117Z,7.52
2023-03-06T11:48:32.882Z,7.49
2023-03-06T11:51:08.023Z,7.45
2023-03-06T11:53:39.069Z,7.42
2023-03-06T11:56:22.821Z,7.39
2023-03-06T11:59:17.193Z,7.37
2023-03-06T12:01:55.583Z,7.35
2023-03-06T12:04:37.378Z,7.35
2023-03-06T12:07:18.477Z,7.32
2023-03-06T12:09:53.416Z,7.33
2023-03-06T12:12:43.034Z,7.40
2023-03-06T12:15:24.542Z,7.45
2023-03-06T12:18:04.493Z,7.50
2023-03-06T12:20:45.877Z,7.48
2023-03-06T12:23:29.947Z,7.48
2023-03-06T12:26:02.178Z,7.47
2023-03-06T12:28:44.904Z,7.52
2023-03-06T12:31:32.352Z,7.48
2023-03-06T12:34:18.712Z,7.52
2023-03-06T12:36:58.588Z,7.58
2023-03-06T12:39:40.102Z,7.66
2023-03-06T12:42:27.661Z,7.74
2023-03-06T12:45:11.903Z,7.61
2023-03-06T12:47:43.404Z,7.71
2023-03-06T12:50:20.014Z,7.83
2023-03-06T12:52:49.218Z,7.90
2023-03-06T12:55:24.299Z,8.01
2023-03-06T12:57:53.928Z,8.08
2023-03-06T13:01:04.233Z,8.08
2023-03-06T13:03:44.889Z,8.15
2023-03-06T13:06:50.893Z,8.11
2023-03-06T13:09:34.389Z,8.07
2023-03-06T13:12:19.037Z,8.02
2023-03-06T13:15:28.548Z,8.05
2023-03-06T13:17:56.833Z,8.09
2023-03-06T13:20:35.509Z,8.13
2023-03-06T13:23:42.929Z,8.23
2023-03-06T13:26:16.027Z,8.30
2023-03-06T13:28:49.356Z,8.28
2023-03-06T13:31:28.268Z,8.31
2023-03-06T13:33:59.814Z,8.34
2023-03-06T13:36:30.492Z,8.28
2023-03-06T13:39:06.862Z,8.29
2023-03-06T13:41:43.749Z,8.28
2023-03-06T13:44:49.030Z,8.27
2023-03-06T13:48:21.087Z,8.26
2023-03-06T13:50:43.212Z,8.29
2023-03-06T13:53:38.501Z,8.34
2023-03-06T13:56:38.495Z,8.22
2023-03-06T13:59:38.964Z,8.15
2023-03-06T14:02:33.585Z,8.23
2023-03-06T14:05:05.054Z,8.28
2023-03-06T14:07:36.350Z,8.26
2023-03-06T14:10:20.885Z,8.25
2023-03-06T14:13:02.976Z,8.23
2023-03-06T14:15:41.993Z,8.15
2023-03-06T14:18:16.611Z,8.12
2023-03-06T14:20:50.006Z,8.10
2023-03-06T14:23:25.181Z,8.03
2023-03-06T14:25:59.319Z,8.04
2023-03-06T14:28:29.589Z,8.00
2023-03-06T14:30:59.485Z,7.98
2023-03-06T14:33:31.523Z,7.94
2023-03-06T14:36:02.913Z,7.91
2023-03-06T14:38:35.598Z,7.85
2023-03-06T14:41:04.327Z,7.86
2023-03-06T14:43:32.400Z,7.83
2023-03-06T14:46:01.599Z,7.81
2023-03-06T14:48:40.331Z,7.83
2023-03-06T14:51:17.984Z,7.79
2023-03-06T14:53:48.517Z,7.80
2023-03-06T14:56:19.380Z,7.77
2023-03-06T14:58:53.878Z,7.69
2023-03-06T15:01:31.946Z,7.59
2023-03-06T15:04:01.423Z,7.49
2023-03-06T15:06:36.332Z,7.42
2023-03-06T15:09:10.147Z,7.34
2023-03-06T15:11:53.698Z,7.22
2023-03-06T15:14:28.219Z,7.26
2023-03-06T15:16:56.047Z,7.22
2023-03-06T15:19:23.962Z,7.15
2023-03-06T15:21:53.615Z,7.08
2023-03-06T15:24:33.491Z,7.03
2023-03-06T15:27:03.611Z,6.95
2023-03-06T15:29:31.939Z,6.86
2023-03-06T15:32:28.716Z,6.73
2023-03-06T15:35:26.923Z,6.69
2023-03-06T15:37:56.700Z,6.66
2023-03-06T15:40:26.392Z,6.63
2023-03-06T15:42:54.382Z,6.58
2023-03-06T15:45:24.516Z,6.55
2023-03-06T15:47:54.228Z,6.54
2023-03-06T15:50:25.264Z,6.51
2023-03-06T15:52:53.460Z,6.49
2023-03-06T15:55:25.691Z,6.48
2023-03-06T15:57:55.844Z,6.41
2023-03-06T16:00:28.314Z,6.40
2023-03-06T16:02:56.389Z,6.28
2023-03-06T16:05:25.615Z,6.20
2023-03-06T16:07:53.543Z,6.17
2023-03-06T16:10:25.133Z,6.15
2023-03-06T16:12:55.864Z,6.17
2023-03-06T16:15:28.839Z,6.13
2023-03-06T16:17:56.879Z,6.10
2023-03-06T16:20:27.224Z,6.07
2023-03-06T16:22:55.291Z,6.06
2023-03-06T16:25:27.171Z,6.08
2023-03-06T16:27:58.986Z,6.08
2023-03-06T16:30:28.579Z,6.11
2023-03-06T16:32:57.100Z,6.11
2023-03-06T16:35:25.579Z,6.09
2023-03-06T16:37:53.367Z,6.05
2023-03-06T16:40:23.264Z,5.97
2023-03-06T16:42:54.822Z,5.92
2023-03-06T16:45:24.229Z,5.84
2023-03-06T16:47:52.413Z,5.78
2023-03-06T16:50:24.262Z,5.77
2023-03-06T16:52:54.000Z,5.79
2023-03-06T16:55:22.969Z,5.73
2023-03-06T16:57:52.444Z,5.61
2023-03-06T17:00:22.295Z,5.57
2023-03-06T17:02:50.867Z,5.60
2023-03-06T17:05:19.121Z,5.61
2023-03-06T17:07:47.333Z,5.56
2023-03-06T17:10:17.245Z,5.55
2023-03-06T17:12:44.999Z,5.52
2023-03-06T17:15:15.227Z,5.48
2023-03-06T17:17:42.960Z,5.45
2023-03-06T17:20:12.002Z,5.40
2023-03-06T17:22:40.500Z,5.38
2023-03-06T17:25:09.628Z,5.34
2023-03-06T17:27:38.445Z,5.30
2023-03-06T17:30:07.573Z,5.28
2023-03-06T17:32:40.789Z,5.18
2023-03-06T17:35:09.358Z,5.13
2023-03-06T17:37:37.343Z,5.11
2023-03-06T17:40:09.232Z,5.01
2023-03-06T17:42:37.095Z,4.97
2023-03-06T17:45:06.332Z,4.95
2023-03-06T17:47:34.198Z,4.86
2023-03-06T17:50:03.988Z,4.80
2023-03-06T17:52:31.982Z,4.76
2023-03-06T17:54:59.731Z,4.75
2023-03-06T17:57:27.585Z,4.77
2023-03-06T17:59:56.357Z,4.75
2023-03-06T18:02:24.385Z,4.72
2023-03-06T18:04:52.317Z,4.65
2023-03-06T18:07:22.173Z,4.63
2023-03-06T18:09:49.915Z,4.67
2023-03-06T18:12:17.762Z,4.65
2023-03-06T18:14:45.518Z,4.65
2023-03-06T18:17:13.433Z,4.67
2023-03-06T18:19:41.333Z,4.72
2023-03-06T18:22:09.118Z,4.74
2023-03-06T18:24:38.912Z,4.74
2023-03-06T18:27:06.716Z,4.71
2023-03-06T18:29:34.509Z,4.68
2023-03-06T18:32:02.500Z,4.69
2023-03-06T18:34:30.334Z,4.72
2023-03-06T18:36:58.083Z,4.70
2023-03-06T18:39:25.883Z,4.69
2023-03-06T18:41:55.919Z,4.59
2023-03-06T18:44:23.778Z,4.58
2023-03-06T18:46:51.699Z,4.57
2023-03-06T18:49:22.227Z,4.52
2023-03-06T18:51:51.252Z,4.52
2023-03-06T18:54:19.397Z,4.50
2023-03-06T18:56:47.265Z,4.50
2023-03-06T18:59:18.992Z,4.48
2023-03-06T19:01:47.703Z,4.47
2023-03-06T19:04:17.796Z,4.47
2023-03-06T19:06:45.632Z,4.49
2023-03-06T19:09:13.397Z,4.49
2023-03-06T19:11:42.745Z,4.48
2023-03-06T19:14:10.795Z,4.48
2023-03-06T19:16:40.041Z,4.45
2023-03-06T19:19:07.927Z,4.46
2023-03-06T19:21:35.738Z,4.45
2023-03-06T19:24:04.225Z,4.44
2023-03-06T19:26:32.002Z,4.44
2023-03-06T19:28:59.967Z,4.47
2023-03-06T19:31:29.374Z,4.43
2023-03-06T19:33:58.790Z,4.44
2023-03-06T19:36:33.930Z,4.45
2023-03-06T19:39:04.592Z,4.44
2023-03-06T19:41:32.440Z,4.42
2023-03-06T19:44:02.583Z,4.41
2023-03-06T19:46:31.713Z,4.42
2023-03-06T19:49:02.148Z,4.46
2023-03-06T19:51:30.328Z,4.48
2023-03-06T19:53:58.705Z,4.49
2023-03-06T19:56:28.822Z,4.47
2023-03-06T19:58:57.373Z,4.50
2023-03-06T20:01:26.851Z,4.50
2023-03-06T20:03:58.404Z,4.50
2023-03-06T20:06:29.604Z,4.56
2023-03-06T20:08:57.448Z,4.59
2023-03-06T20:11:29.722Z,4.59
2023-03-06T20:13:58.184Z,4.59
2023-03-06T20:16:27.838Z,4.60
2023-03-06T20:18:59.148Z,4.63
2023-03-06T20:21:30.542Z,4.64
2023-03-06T20:23:58.993Z,4.66
2023-03-06T20:26:28.277Z,4.63
2023-03-06T20:28:56.160Z,4.65
2023-03-06T20:31:26.712Z,4.66
2023-03-06T20:33:56.068Z,4.68
2023-03-06T20:36:27.250Z,4.72
2023-03-06T20:38:56.573Z,4.72
2023-03-06T20:41:26.172Z,4.73
2023-03-06T20:43:54.095Z,4.72
2023-03-06T20:46:23.434Z,4.72
2023-03-06T20:48:52.798Z,4.76
2023-03-06T20:51:22.508Z,4.74
2023-03-06T20:53:53.003Z,4.76
2023-03-06T20:56:24.622Z,4.73
2023-03-06T20:58:52.932Z,4.74
2023-03-06T21:01:21.441Z,4.74
2023-03-06T21:03:50.061Z,4.77
2023-03-06T21:06:17.992Z,4.77
2023-03-06T21:08:45.826Z,4.74
2023-03-06T21:11:13.734Z,4.75
2023-03-06T21:13:42.862Z,4.75
2023-03-06T21:16:14.780Z,4.77
2023-03-06T21:18:43.056Z,4.76
2023-03-06T21:21:13.527Z,4.77
2023-03-06T21:23:41.781Z,4.77
2023-03-06T21:26:13.095Z,4.75
2023-03-06T21:28:42.906Z,4.75
2023-03-06T21:31:12.387Z,4.73
2023-03-06T21:33:40.427Z,4.73
2023-03-06T21:36:09.011Z,4.76
2023-03-06T21:38:37.051Z,4.77
2023-03-06T21:41:09.240Z,4.75
2023-03-06T21:43:36.996Z,4.73
2023-03-06T21:46:06.495Z,4.73
2023-03-06T21:48:34.563Z,4.71
2023-03-06T21:51:10.065Z,4.71
2023-03-06T21:53:37.899Z,4.70
2023-03-06T21:56:06.516Z,4.73
2023-03-06T21:58:34.502Z,4.70
2023-03-06T22:01:02.318Z,4.71
2023-03-06T22:03:31.411Z,4.73
2023-03-06T22:06:08.566Z,4.74
2023-03-06T22:08:39.081Z,4.76
2023-03-06T22:11:08.593Z,4.75
2023-03-06T22:13:36.576Z,4.72
2023-03-06T22:16:05.302Z,4.75
2023-03-06T22:18:34.934Z,4.77
2023-03-06T22:21:07.713Z,4.78
2023-03-06T22:23:35.426Z,4.78
2023-03-06T22:26:04.623Z,4.77
2023-03-06T22:28:32.493Z,4.78
2023-03-06T22:31:05.428Z,4.79
2023-03-06T22:33:34.627Z,4.77
2023-03-06T22:36:06.376Z,4.77
2023-03-06T22:38:34.439Z,4.76
2023-03-06T22:41:02.301Z,4.75
2023-03-06T22:43:30.249Z,4.76
2023-03-06T22:46:01.779Z,4.76
2023-03-06T22:48:29.889Z,4.77
2023-03-06T22:51:02.998Z,4.77
2023-03-06T22:53:30.765Z,4.74
2023-03-06T22:55:59.866Z,4.74
2023-03-06T22:58:28.414Z,4.71
2023-03-06T23:00:56.213Z,4.70
2023-03-06T23:03:24.076Z,4.67
2023-03-06T23:05:51.801Z,4.68
2023-03-06T23:08:20.904Z,4.73
2023-03-06T23:10:48.609Z,4.71
2023-03-06T23:13:16.349Z,4.71
2023-03-06T23:15:44.153Z,4.69
2023-03-06T23:18:11.903Z,4.68
2023-03-06T23:20:42.959Z,4.68
2023-03-06T23:23:10.809Z,4.70
2023-03-06T23:25:40.012Z,4.68
2023-03-06T23:28:07.854Z,4.69
2023-03-06T23:30:35.704Z,4.69
2023-03-06T23:33:03.401Z,4.69
2023-03-06T23:35:35.678Z,4.67
2023-03-06T23:38:03.588Z,4.67
2023-03-06T23:40:32.316Z,4.69
2023-03-06T23:43:01.460Z,4.71
2023-03-06T23:45:31.572Z,4.69
2023-03-06T23:47:59.861Z,4.70
2023-03-06T23:50:27.706Z,4.70
2023-03-06T23:52:58.944Z,4.69
2023-03-06T23:55:26.674Z,4.67
2023-03-06T23:57:54.415Z,4.64
